Time;durP1;ratioP1;P1;durP2;ratioP2;P2;SDS_P1;SDS_P2;PMS_P1;PMS_P2;Temp;Humidity;BMP_temperature;BMP_pressure;BME280_temperature;BME280_humidity;BME280_pressure;Samples;Min_cycle;Max_cycle;Signal;HPM_P1;HPM_P2
2021/01/04 00:00:12;;;;;;;;;;;7.60;68.60;;;;;;2582902;23;19920;-71
2021/01/04 00:01:30;;;;;;;;;;;7.50;69.40;;;;;;2582650;23;19923;-72
2021/01/04 00:02:37;;;;;;;;;;;7.50;69.70;;;;;;2582777;23;19926;-71
2021/01/04 00:03:54;;;;;;;;;;;7.50;70.00;;;;;;2582759;23;19966;-72
2021/01/04 00:05:04;;;;;;;;;;;7.50;69.10;;;;;;2582722;23;19919;-71
2021/01/04 00:06:25;;;;;;;;;;;7.60;68.90;;;;;;2582602;23;19920;-71
2021/01/04 00:07:43;;;;;;;;;;;7.70;70.80;;;;;;2582786;23;19920;-71
2021/01/04 00:08:54;;;;;;;;;;;7.80;68.10;;;;;;2582815;23;20071;-71
2021/01/04 00:10:01;;;;;;;;;;;7.80;69.30;;;;;;2582681;23;20408;-71
2021/01/04 00:11:17;;;;;;;;;;;7.80;68.10;;;;;;2582697;23;19973;-71
2021/01/04 00:12:22;;;;;;;;;;;7.80;68.10;;;;;;2577587;23;19919;-71
2021/01/04 00:13:29;;;;;;;;;;;7.70;68.30;;;;;;2582679;23;20092;-71
2021/01/04 00:14:51;;;;;;;;;;;7.80;68.90;;;;;;2582791;23;19947;-72
2021/01/04 00:15:56;;;;;;;;;;;7.90;69.90;;;;;;2582509;23;19926;-71
2021/01/04 00:17:02;;;;;;;;;;;7.80;67.30;;;;;;2582601;23;19920;-71
2021/01/04 00:18:21;;;;;;;;;;;7.80;68.40;;;;;;2582770;23;20356;-71
2021/01/04 00:19:27;;;;;;;;;;;7.70;67.80;;;;;;2582041;23;19924;-71
2021/01/04 00:20:32;;;;;;;;;;;7.70;68.90;;;;;;2582710;23;19920;-71
2021/01/04 00:21:38;;;;;;;;;;;7.70;68.70;;;;;;2582827;23;20349;-71
2021/01/04 00:22:43;;;;;;;;;;;7.70;68.00;;;;;;2582766;23;19927;-70
2021/01/04 00:23:50;;;;;;;;;;;7.70;68.40;;;;;;2584549;23;19920;-72
2021/01/04 00:24:56;;;;;;;;;;;7.70;67.90;;;;;;2570562;23;19920;-72
2021/01/04 00:26:00;;;;;;;;;;;7.70;68.50;;;;;;2571252;23;20300;-71
2021/01/04 00:27:06;;;;;;;;;;;7.80;67.50;;;;;;2583818;23;19920;-72
2021/01/04 00:28:08;;;;;;;;;;;7.70;67.80;;;;;;2583661;23;19920;-71
2021/01/04 00:29:10;;;;;;;;;;;7.70;68.10;;;;;;2583792;23;19919;-71
2021/01/04 00:30:16;;;;;;;;;;;7.70;68.20;;;;;;2583565;23;19942;-71
2021/01/04 00:31:20;;;;;;;;;;;7.60;68.40;;;;;;2583304;23;19919;-71
2021/01/04 00:32:24;;;;;;;;;;;7.50;69.10;;;;;;2583255;23;19931;-71
2021/01/04 00:33:26;;;;;;;;;;;7.60;69.10;;;;;;2583339;23;19926;-71
2021/01/04 00:34:31;;;;;;;;;;;7.70;70.10;;;;;;2583367;23;19919;-73
2021/01/04 00:35:32;;;;;;;;;;;7.70;68.30;;;;;;2583312;23;19947;-71
2021/01/04 00:36:35;;;;;;;;;;;7.80;68.40;;;;;;2582929;23;19927;-71
2021/01/04 00:37:51;;;;;;;;;;;7.70;68.80;;;;;;2582907;23;19920;-74
2021/01/04 00:39:25;;;;;;;;;;;7.70;67.90;;;;;;2582864;23;19943;-71
2021/01/04 00:40:32;;;;;;;;;;;7.80;69.80;;;;;;2531972;23;20367;-71
2021/01/04 00:41:45;;;;;;;;;;;7.90;66.90;;;;;;2532110;23;19921;-71
2021/01/04 00:42:49;;;;;;;;;;;7.90;66.50;;;;;;2532144;23;19921;-71
2021/01/04 00:43:53;;;;;;;;;;;7.80;66.40;;;;;;2532543;23;19928;-70
2021/01/04 00:44:59;;;;;;;;;;;7.70;67.90;;;;;;2533203;23;19936;-70
2021/01/04 00:46:02;;;;;;;;;;;7.80;68.00;;;;;;2547998;23;19921;-71
2021/01/04 00:47:09;;;;;;;;;;;7.90;67.80;;;;;;2582853;23;19928;-70
2021/01/04 00:48:15;;;;;;;;;;;7.80;67.90;;;;;;2582865;23;19920;-72
2021/01/04 00:49:21;;;;;;;;;;;7.70;66.60;;;;;;2582651;23;20356;-71
2021/01/04 00:50:26;;;;;;;;;;;7.60;68.00;;;;;;2582858;23;19926;-72
2021/01/04 00:51:34;;;;;;;;;;;7.50;67.60;;;;;;2569562;23;19996;-72
2021/01/04 00:52:40;;;;;;;;;;;7.50;69.80;;;;;;2571261;23;20010;-72
2021/01/04 00:53:44;;;;;;;;;;;7.50;68.40;;;;;;2582651;23;19935;-71
2021/01/04 00:54:57;;;;;;;;;;;7.40;68.00;;;;;;2582624;23;20363;-71
2021/01/04 00:56:05;;;;;;;;;;;7.40;68.30;;;;;;2582764;23;19919;-72
2021/01/04 00:57:15;;;;;;;;;;;7.50;68.80;;;;;;2582699;23;19920;-71
2021/01/04 00:58:25;;;;;;;;;;;7.50;67.70;;;;;;2582654;23;19951;-71
2021/01/04 00:59:31;;;;;;;;;;;7.50;68.00;;;;;;2582897;23;19926;-72
2021/01/04 01:00:36;;;;;;;;;;;7.00;67.80;;;;;;2582943;23;19919;-71
2021/01/04 01:01:55;;;;;;;;;;;7.50;69.90;;;;;;2582744;23;19927;-71
2021/01/04 01:03:16;;;;;;;;;;;7.60;70.90;;;;;;2582210;23;19920;-71
2021/01/04 01:04:25;;;;;;;;;;;7.70;69.00;;;;;;2582711;23;19920;-71
2021/01/04 01:05:31;;;;;;;;;;;7.90;69.10;;;;;;2583478;23;19930;-72
2021/01/04 01:06:35;;;;;;;;;;;8.00;68.00;;;;;;2583516;23;20261;-71
2021/01/04 01:07:58;;;;;;;;;;;8.00;67.90;;;;;;2583458;23;19947;-74
2021/01/04 01:09:00;;;;;;;;;;;7.80;66.50;;;;;;2583444;23;20333;-70
2021/01/04 01:10:07;;;;;;;;;;;7.90;69.40;;;;;;2583629;23;19920;-71
2021/01/04 01:11:09;;;;;;;;;;;7.90;68.40;;;;;;2583528;23;19952;-71
2021/01/04 01:12:21;;;;;;;;;;;8.00;68.40;;;;;;2583527;23;19920;-71
2021/01/04 01:13:32;;;;;;;;;;;7.80;66.50;;;;;;2584116;23;19919;-72
2021/01/04 01:14:40;;;;;;;;;;;7.80;66.50;;;;;;2584227;23;20253;-72
2021/01/04 01:15:48;;;;;;;;;;;7.70;67.30;;;;;;2585578;23;19920;-71
2021/01/04 01:17:07;;;;;;;;;;;7.80;67.70;;;;;;2585934;23;19926;-74
2021/01/04 01:18:17;;;;;;;;;;;7.60;68.70;;;;;;2534909;23;19925;-72
2021/01/04 01:19:23;;;;;;;;;;;7.80;68.50;;;;;;2582866;23;19951;-71
2021/01/04 01:20:27;;;;;;;;;;;7.80;70.20;;;;;;2584375;23;19923;-73
2021/01/04 01:21:28;;;;;;;;;;;7.60;67.20;;;;;;2584428;23;19919;-72
2021/01/04 01:22:31;;;;;;;;;;;7.60;68.80;;;;;;2584843;23;19920;-71
2021/01/04 01:23:34;;;;;;;;;;;7.40;68.30;;;;;;2586731;23;19930;-72
2021/01/04 01:24:35;;;;;;;;;;;7.30;68.40;;;;;;2586251;23;20245;-72
2021/01/04 01:25:39;;;;;;;;;;;7.20;69.60;;;;;;2586912;23;20467;-75
2021/01/04 01:26:54;;;;;;;;;;;7.20;69.50;;;;;;2586547;23;19919;-73
2021/01/04 01:28:14;;;;;;;;;;;7.20;69.00;;;;;;2586662;23;19919;-72
2021/01/04 01:29:27;;;;;;;;;;;7.20;69.90;;;;;;2586926;23;19920;-72
2021/01/04 01:30:47;;;;;;;;;;;7.40;69.10;;;;;;2574216;23;20356;-74
2021/01/04 01:32:10;;;;;;;;;;;7.50;69.10;;;;;;2578050;23;20075;-73
2021/01/04 01:33:33;;;;;;;;;;;7.50;68.20;;;;;;2586992;23;19920;-72
2021/01/04 01:34:55;;;;;;;;;;;7.50;69.50;;;;;;2523801;23;20417;-71
2021/01/04 01:36:09;;;;;;;;;;;7.40;68.80;;;;;;2573836;23;19926;-71
2021/01/04 01:37:25;;;;;;;;;;;7.60;70.00;;;;;;2586558;23;19923;-74
2021/01/04 01:38:37;;;;;;;;;;;7.70;68.00;;;;;;2586719;23;19919;-71
2021/01/04 01:39:57;;;;;;;;;;;7.60;67.00;;;;;;2586246;23;19920;-71
2021/01/04 01:41:12;;;;;;;;;;;7.70;68.30;;;;;;2582397;23;20341;-71
2021/01/04 01:42:31;;;;;;;;;;;7.70;67.30;;;;;;2583526;23;19954;-71
2021/01/04 01:43:39;;;;;;;;;;;7.60;67.40;;;;;;2583205;23;19926;-71
2021/01/04 01:44:45;;;;;;;;;;;7.60;69.90;;;;;;2583386;23;19920;-72
2021/01/04 01:45:51;;;;;;;;;;;7.50;68.10;;;;;;2583150;23;19946;-71
2021/01/04 01:46:56;;;;;;;;;;;7.50;68.40;;;;;;2583328;23;19920;-71
2021/01/04 01:48:02;;;;;;;;;;;7.60;68.20;;;;;;2583434;23;19924;-71
2021/01/04 01:49:21;;;;;;;;;;;7.70;68.30;;;;;;2583474;23;20139;-72
2021/01/04 01:50:29;;;;;;;;;;;7.70;67.20;;;;;;2582577;23;19919;-71
2021/01/04 01:51:37;;;;;;;;;;;7.80;68.20;;;;;;2583516;23;19926;-71
2021/01/04 01:52:51;;;;;;;;;;;7.80;69.10;;;;;;2569882;23;20342;-72
2021/01/04 01:53:56;;;;;;;;;;;8.00;69.80;;;;;;2572858;23;20346;-71
2021/01/04 01:55:08;;;;;;;;;;;8.10;67.30;;;;;;2569996;23;19920;-71
2021/01/04 01:56:16;;;;;;;;;;;8.10;66.90;;;;;;2572671;23;19919;-72
2021/01/04 01:57:34;;;;;;;;;;;8.10;66.00;;;;;;2583460;23;19920;-71
2021/01/04 01:58:51;;;;;;;;;;;8.10;65.90;;;;;;2583369;23;19943;-72
2021/01/04 01:59:59;;;;;;;;;;;8.00;65.90;;;;;;2583409;23;19920;-72
2021/01/04 02:01:04;;;;;;;;;;;8.00;66.60;;;;;;2583242;23;19920;-72
2021/01/04 02:02:07;;;;;;;;;;;7.90;65.70;;;;;;2583231;23;20244;-71
2021/01/04 02:03:13;;;;;;;;;;;7.90;66.00;;;;;;2583057;23;20338;-72
2021/01/04 02:04:18;;;;;;;;;;;7.90;66.70;;;;;;2582966;23;20325;-72
2021/01/04 02:05:36;;;;;;;;;;;7.80;66.00;;;;;;2583390;23;19920;-71
2021/01/04 02:06:58;;;;;;;;;;;7.80;66.30;;;;;;2583480;23;19920;-72
2021/01/04 02:08:02;;;;;;;;;;;7.80;67.20;;;;;;2573461;23;19920;-71
2021/01/04 02:09:06;;;;;;;;;;;7.90;66.70;;;;;;2583580;23;20099;-71
2021/01/04 02:10:11;;;;;;;;;;;7.80;66.00;;;;;;2583593;23;19919;-72
2021/01/04 02:11:16;;;;;;;;;;;7.70;66.90;;;;;;2583904;23;20006;-71
2021/01/04 02:12:23;;;;;;;;;;;7.80;68.20;;;;;;2584069;23;19943;-72
2021/01/04 02:13:26;;;;;;;;;;;8.00;68.80;;;;;;2584161;23;20001;-72
2021/01/04 02:14:31;;;;;;;;;;;8.00;66.10;;;;;;2584060;23;19943;-73
2021/01/04 02:15:34;;;;;;;;;;;8.10;68.20;;;;;;2585355;23;19920;-72
2021/01/04 02:16:40;;;;;;;;;;;8.10;66.20;;;;;;2586652;23;19935;-72
2021/01/04 02:18:02;;;;;;;;;;;8.20;66.80;;;;;;2586945;23;19919;-73
2021/01/04 02:19:09;;;;;;;;;;;8.20;66.70;;;;;;2586445;23;19923;-73
2021/01/04 02:20:29;;;;;;;;;;;8.30;68.20;;;;;;2586590;23;19919;-73
2021/01/04 02:21:54;;;;;;;;;;;8.40;66.40;;;;;;2586493;23;19920;-75
2021/01/04 02:23:06;;;;;;;;;;;8.60;66.00;;;;;;2585137;23;19934;-72
2021/01/04 02:24:10;;;;;;;;;;;8.50;64.30;;;;;;2583720;23;19927;-71
2021/01/04 02:25:11;;;;;;;;;;;8.60;65.20;;;;;;2583679;23;19920;-72
2021/01/04 02:26:15;;;;;;;;;;;8.50;64.50;;;;;;2583292;23;19919;-72
2021/01/04 02:27:20;;;;;;;;;;;8.60;65.40;;;;;;2583126;23;20238;-71
2021/01/04 02:28:23;;;;;;;;;;;8.60;63.60;;;;;;2583243;23;19920;-72
2021/01/04 02:29:25;;;;;;;;;;;8.50;63.50;;;;;;2582938;23;20377;-72
2021/01/04 02:30:26;;;;;;;;;;;8.40;64.00;;;;;;2569939;23;19920;-71
2021/01/04 02:31:28;;;;;;;;;;;8.40;64.00;;;;;;2570115;23;19949;-71
2021/01/04 02:32:29;;;;;;;;;;;8.30;64.00;;;;;;2583242;23;19946;-71
2021/01/04 02:33:31;;;;;;;;;;;8.30;64.50;;;;;;2583158;23;19920;-71
2021/01/04 02:34:34;;;;;;;;;;;8.20;64.80;;;;;;2583316;23;19926;-71
2021/01/04 02:35:37;;;;;;;;;;;8.20;66.40;;;;;;2582903;23;19920;-71
2021/01/04 02:36:41;;;;;;;;;;;8.00;64.40;;;;;;2583137;23;19920;-71
2021/01/04 02:37:43;;;;;;;;;;;8.10;65.10;;;;;;2582950;23;19919;-72
2021/01/04 02:38:49;;;;;;;;;;;8.00;64.90;;;;;;2583267;23;19920;-72
2021/01/04 02:39:53;;;;;;;;;;;7.90;66.30;;;;;;2583111;23;19927;-71
2021/01/04 02:40:54;;;;;;;;;;;8.00;65.10;;;;;;2583175;23;20087;-72
2021/01/04 02:42:01;;;;;;;;;;;7.80;65.20;;;;;;2583041;23;19927;-71
2021/01/04 02:43:03;;;;;;;;;;;7.80;65.60;;;;;;2583222;23;19988;-71
2021/01/04 02:44:05;;;;;;;;;;;7.80;66.30;;;;;;2583370;23;20178;-70
2021/01/04 02:45:08;;;;;;;;;;;7.80;67.70;;;;;;2583289;23;19927;-71
2021/01/04 02:46:11;;;;;;;;;;;7.90;66.70;;;;;;2583144;23;19920;-71
2021/01/04 02:47:19;;;;;;;;;;;8.50;65.70;;;;;;2582786;23;20372;-71
2021/01/04 02:48:31;;;;;;;;;;;7.70;65.80;;;;;;2583014;23;19920;-71
2021/01/04 02:49:35;;;;;;;;;;;7.80;66.30;;;;;;2583217;23;19951;-71
2021/01/04 02:50:42;;;;;;;;;;;7.60;67.50;;;;;;2583107;23;19927;-71
2021/01/04 02:51:45;;;;;;;;;;;7.70;67.20;;;;;;2582887;23;19926;-71
2021/01/04 02:53:10;;;;;;;;;;;7.80;67.30;;;;;;2583079;23;19920;-71
2021/01/04 02:54:15;;;;;;;;;;;7.70;66.10;;;;;;2552261;23;20167;-71
2021/01/04 02:55:21;;;;;;;;;;;7.40;66.70;;;;;;2583047;23;19920;-71
2021/01/04 02:56:40;;;;;;;;;;;7.40;67.60;;;;;;2582890;23;19920;-71
2021/01/04 02:57:45;;;;;;;;;;;7.30;68.50;;;;;;2582809;23;19927;-71
2021/01/04 02:58:55;;;;;;;;;;;7.40;68.50;;;;;;2583267;23;19920;-71
2021/01/04 02:59:58;;;;;;;;;;;7.40;67.20;;;;;;2583113;23;19926;-72
2021/01/04 03:01:02;;;;;;;;;;;7.30;68.50;;;;;;2582900;23;19920;-71
2021/01/04 03:02:06;;;;;;;;;;;7.40;70.00;;;;;;2582864;23;20294;-71
2021/01/04 03:03:07;;;;;;;;;;;7.50;69.20;;;;;;2583088;23;19920;-71
2021/01/04 03:04:10;;;;;;;;;;;7.70;68.40;;;;;;2582981;23;19926;-72
2021/01/04 03:05:16;;;;;;;;;;;7.60;67.10;;;;;;2583160;23;19927;-72
2021/01/04 03:06:21;;;;;;;;;;;7.50;67.50;;;;;;2583137;23;20316;-71
2021/01/04 03:07:24;;;;;;;;;;;7.50;69.00;;;;;;2583199;23;19919;-71
2021/01/04 03:08:25;;;;;;;;;;;7.50;67.80;;;;;;2582833;23;19920;-73
2021/01/04 03:09:27;;;;;;;;;;;7.40;69.20;;;;;;2583232;23;19926;-72
2021/01/04 03:10:31;;;;;;;;;;;7.40;69.70;;;;;;2583041;23;19920;-71
2021/01/04 03:11:32;;;;;;;;;;;7.30;68.00;;;;;;2582907;23;19926;-71
2021/01/04 03:12:35;;;;;;;;;;;7.40;69.80;;;;;;2582861;23;19927;-71
2021/01/04 03:13:43;;;;;;;;;;;7.40;68.90;;;;;;2569693;23;19983;-71
2021/01/04 03:14:53;;;;;;;;;;;7.50;68.80;;;;;;2571130;23;19927;-73
2021/01/04 03:16:02;;;;;;;;;;;7.40;67.90;;;;;;2582887;23;19958;-71
2021/01/04 03:17:08;;;;;;;;;;;7.40;69.40;;;;;;2582856;23;19926;-72
2021/01/04 03:18:17;;;;;;;;;;;7.40;69.00;;;;;;2582922;23;20264;-71
2021/01/04 03:19:21;;;;;;;;;;;7.40;68.20;;;;;;2582995;23;20241;-72
2021/01/04 03:20:23;;;;;;;;;;;7.40;68.70;;;;;;2583281;23;19943;-72
2021/01/04 03:21:25;;;;;;;;;;;7.50;70.20;;;;;;2582950;23;19962;-71
2021/01/04 03:22:27;;;;;;;;;;;7.50;69.10;;;;;;2582876;23;19926;-72
2021/01/04 03:23:29;;;;;;;;;;;7.60;68.60;;;;;;2582875;23;19926;-71
2021/01/04 03:24:31;;;;;;;;;;;7.60;69.10;;;;;;2582942;23;19920;-73
2021/01/04 03:25:36;;;;;;;;;;;7.60;68.10;;;;;;2569781;23;19927;-72
2021/01/04 03:26:40;;;;;;;;;;;7.50;68.40;;;;;;2571036;23;19920;-71
2021/01/04 03:27:42;;;;;;;;;;;7.50;69.70;;;;;;2582661;23;19919;-70
2021/01/04 03:28:43;;;;;;;;;;;7.70;70.20;;;;;;2582869;23;19942;-72
2021/01/04 03:29:44;;;;;;;;;;;7.70;68.00;;;;;;2583046;23;20356;-72
2021/01/04 03:30:46;;;;;;;;;;;7.70;68.40;;;;;;2583021;23;19920;-72
2021/01/04 03:31:47;;;;;;;;;;;7.60;68.50;;;;;;2582832;23;20324;-71
2021/01/04 03:32:48;;;;;;;;;;;7.60;69.50;;;;;;2569725;23;19924;-71
2021/01/04 03:33:50;;;;;;;;;;;7.70;69.50;;;;;;2569715;23;19927;-71
2021/01/04 03:34:52;;;;;;;;;;;7.50;68.30;;;;;;2582942;23;20259;-73
2021/01/04 03:35:55;;;;;;;;;;;7.40;69.10;;;;;;2582813;23;19920;-71
2021/01/04 03:36:57;;;;;;;;;;;7.60;69.80;;;;;;2582748;23;19919;-71
2021/01/04 03:37:58;;;;;;;;;;;7.60;69.70;;;;;;2582790;23;20269;-71
2021/01/04 03:39:00;;;;;;;;;;;7.90;71.50;;;;;;2582927;23;19920;-71
2021/01/04 03:40:02;;;;;;;;;;;7.80;69.10;;;;;;2583018;23;19920;-73
2021/01/04 03:41:05;;;;;;;;;;;8.00;70.60;;;;;;2582917;23;20162;-71
2021/01/04 03:42:06;;;;;;;;;;;8.10;67.10;;;;;;2582808;23;20337;-72
2021/01/04 03:43:07;;;;;;;;;;;8.10;67.20;;;;;;2582986;23;19920;-71
2021/01/04 03:44:09;;;;;;;;;;;8.30;69.50;;;;;;2582852;23;19950;-71
2021/01/04 03:45:11;;;;;;;;;;;8.30;65.80;;;;;;2582910;23;19954;-72
2021/01/04 03:46:12;;;;;;;;;;;8.30;66.30;;;;;;2582961;23;19927;-71
2021/01/04 03:47:15;;;;;;;;;;;8.30;65.90;;;;;;2582859;23;19919;-71
2021/01/04 03:48:16;;;;;;;;;;;8.20;65.90;;;;;;2582903;23;19919;-72
2021/01/04 03:49:17;;;;;;;;;;;8.10;66.70;;;;;;2583121;23;19920;-71
2021/01/04 03:50:19;;;;;;;;;;;8.30;68.90;;;;;;2584433;23;19930;-73
2021/01/04 03:51:20;;;;;;;;;;;8.30;65.90;;;;;;2586039;23;19926;-73
2021/01/04 03:52:22;;;;;;;;;;;8.30;67.50;;;;;;2585496;23;19920;-71
2021/01/04 03:53:23;;;;;;;;;;;8.30;66.60;;;;;;2585609;23;19927;-71
2021/01/04 03:54:25;;;;;;;;;;;8.40;66.80;;;;;;2586663;23;20126;-73
2021/01/04 03:55:26;;;;;;;;;;;8.60;67.80;;;;;;2586121;23;19987;-71
2021/01/04 03:56:29;;;;;;;;;;;8.70;64.70;;;;;;2586111;23;19930;-72
2021/01/04 03:57:30;;;;;;;;;;;8.70;65.50;;;;;;2586049;23;19919;-73
2021/01/04 03:58:31;;;;;;;;;;;8.90;66.40;;;;;;2585494;23;19924;-73
2021/01/04 03:59:33;;;;;;;;;;;8.90;64.20;;;;;;2586198;23;19926;-71
2021/01/04 04:00:34;;;;;;;;;;;9.00;64.90;;;;;;2585187;23;19919;-71
2021/01/04 04:01:35;;;;;;;;;;;9.00;63.70;;;;;;2585019;23;20182;-72
2021/01/04 04:02:37;;;;;;;;;;;9.10;63.50;;;;;;2583797;23;19919;-70
2021/01/04 04:03:38;;;;;;;;;;;8.90;64.30;;;;;;2582663;23;19927;-72
2021/01/04 04:04:40;;;;;;;;;;;9.00;63.50;;;;;;2582714;23;19923;-71
2021/01/04 04:05:42;;;;;;;;;;;8.90;63.00;;;;;;2582633;23;20152;-72
2021/01/04 04:06:43;;;;;;;;;;;8.80;63.40;;;;;;2582647;23;19960;-72
2021/01/04 04:07:45;;;;;;;;;;;8.70;63.30;;;;;;2582915;23;19927;-71
2021/01/04 04:08:47;;;;;;;;;;;8.60;64.00;;;;;;2582764;23;19919;-71
2021/01/04 04:09:48;;;;;;;;;;;8.80;66.00;;;;;;2582837;23;20252;-70
2021/01/04 04:10:50;;;;;;;;;;;8.80;64.40;;;;;;2582842;23;19923;-71
2021/01/04 04:11:52;;;;;;;;;;;8.90;64.40;;;;;;2582862;23;19919;-71
2021/01/04 04:12:55;;;;;;;;;;;8.90;63.50;;;;;;2582762;23;19985;-71
2021/01/04 04:13:56;;;;;;;;;;;8.70;62.80;;;;;;2582639;23;20355;-72
2021/01/04 04:14:58;;;;;;;;;;;8.80;63.90;;;;;;2582860;23;19919;-71
2021/01/04 04:16:00;;;;;;;;;;;8.70;64.50;;;;;;2582833;23;19966;-73
2021/01/04 04:17:02;;;;;;;;;;;8.60;63.70;;;;;;2582582;23;19986;-70
2021/01/04 04:18:04;;;;;;;;;;;8.40;63.90;;;;;;2582870;23;20033;-73
2021/01/04 04:19:06;;;;;;;;;;;8.40;64.20;;;;;;2582570;23;20245;-72
2021/01/04 04:20:09;;;;;;;;;;;8.30;65.40;;;;;;2582747;23;20349;-73
2021/01/04 04:21:14;;;;;;;;;;;8.20;64.80;;;;;;2582776;23;19931;-71
2021/01/04 04:22:15;;;;;;;;;;;8.30;66.10;;;;;;2582853;23;19931;-72
2021/01/04 04:23:17;;;;;;;;;;;8.30;65.30;;;;;;2582696;23;19970;-72
2021/01/04 04:24:18;;;;;;;;;;;8.20;65.50;;;;;;2582722;23;19927;-72
2021/01/04 04:25:21;;;;;;;;;;;8.40;68.30;;;;;;2582827;23;19930;-72
2021/01/04 04:26:24;;;;;;;;;;;8.60;66.00;;;;;;2582698;23;19920;-71
2021/01/04 04:27:26;;;;;;;;;;;8.60;65.60;;;;;;2582754;23;20348;-73
2021/01/04 04:28:27;;;;;;;;;;;8.70;64.80;;;;;;2582673;23;19926;-71
2021/01/04 04:29:29;;;;;;;;;;;8.70;64.90;;;;;;2582858;23;19973;-72
2021/01/04 04:30:30;;;;;;;;;;;8.70;64.70;;;;;;2582518;23;20345;-72
2021/01/04 04:31:32;;;;;;;;;;;8.80;64.10;;;;;;2582622;23;19919;-71
2021/01/04 04:32:33;;;;;;;;;;;8.70;64.70;;;;;;2582677;23;19920;-72
2021/01/04 04:33:34;;;;;;;;;;;8.60;64.20;;;;;;2582764;23;19919;-72
2021/01/04 04:34:37;;;;;;;;;;;8.60;65.20;;;;;;2569398;23;19920;-72
2021/01/04 04:35:39;;;;;;;;;;;8.50;63.60;;;;;;2569851;23;20254;-72
2021/01/04 04:36:41;;;;;;;;;;;8.40;63.80;;;;;;2582557;23;19927;-71
2021/01/04 04:37:42;;;;;;;;;;;8.30;64.50;;;;;;2582568;23;20325;-71
2021/01/04 04:38:44;;;;;;;;;;;8.30;65.50;;;;;;2582565;23;20287;-72
2021/01/04 04:39:45;;;;;;;;;;;8.40;65.10;;;;;;2583949;23;19966;-72
2021/01/04 04:40:48;;;;;;;;;;;8.30;66.70;;;;;;2583633;23;19920;-72
2021/01/04 04:41:51;;;;;;;;;;;8.60;66.50;;;;;;2583786;23;19920;-71
2021/01/04 04:42:54;;;;;;;;;;;8.60;64.40;;;;;;2583417;23;19943;-72
2021/01/04 04:44:02;;;;;;;;;;;8.70;65.40;;;;;;2583505;23;20285;-72
2021/01/04 04:45:05;;;;;;;;;;;8.60;64.50;;;;;;2583629;23;19920;-72
2021/01/04 04:46:11;;;;;;;;;;;8.60;64.10;;;;;;2583626;23;19920;-72
2021/01/04 04:47:25;;;;;;;;;;;8.60;65.00;;;;;;2583507;23;19919;-72
2021/01/04 04:48:37;;;;;;;;;;;8.60;64.40;;;;;;2583592;23;20222;-72
2021/01/04 04:49:51;;;;;;;;;;;8.60;65.00;;;;;;2583407;23;19926;-72
2021/01/04 04:50:57;;;;;;;;;;;8.70;66.40;;;;;;2583564;23;20263;-71
2021/01/04 04:52:06;;;;;;;;;;;8.80;64.70;;;;;;2583330;23;19920;-72
2021/01/04 04:53:35;;;;;;;;;;;8.70;63.80;;;;;;2583342;23;19919;-72
2021/01/04 04:54:41;;;;;;;;;;;8.60;63.60;;;;;;2583751;23;19946;-72
2021/01/04 04:55:57;;;;;;;;;;;8.70;63.60;;;;;;2583545;23;19920;-71
2021/01/04 04:57:03;;;;;;;;;;;8.50;63.80;;;;;;2583552;23;19943;-72
2021/01/04 04:58:20;;;;;;;;;;;8.50;64.80;;;;;;2583451;23;19919;-72
2021/01/04 04:59:27;;;;;;;;;;;8.60;65.40;;;;;;2577388;23;19919;-72
2021/01/04 05:00:36;;;;;;;;;;;8.70;65.10;;;;;;2583828;23;19919;-71
2021/01/04 05:01:43;;;;;;;;;;;8.60;64.20;;;;;;2583485;23;20253;-72
2021/01/04 05:02:48;;;;;;;;;;;8.60;65.00;;;;;;2583457;23;19920;-72
2021/01/04 05:04:11;;;;;;;;;;;8.70;65.20;;;;;;2583498;23;19920;-72
2021/01/04 05:05:22;;;;;;;;;;;8.60;63.50;;;;;;2573528;23;19926;-71
2021/01/04 05:06:31;;;;;;;;;;;8.60;65.60;;;;;;2583398;23;19920;-71
2021/01/04 05:07:46;;;;;;;;;;;8.90;66.10;;;;;;2583659;23;19924;-72
2021/01/04 05:08:55;;;;;;;;;;;8.90;63.50;;;;;;2583559;23;19920;-72
2021/01/04 05:09:57;;;;;;;;;;;8.70;63.30;;;;;;2583514;23;19919;-72
2021/01/04 05:10:59;;;;;;;;;;;8.50;64.20;;;;;;2583440;23;19923;-72
2021/01/04 05:12:03;;;;;;;;;;;8.60;65.70;;;;;;2583375;23;19920;-73
2021/01/04 05:13:12;;;;;;;;;;;8.70;66.10;;;;;;2583451;23;19947;-72
2021/01/04 05:14:17;;;;;;;;;;;8.80;63.90;;;;;;2583437;23;19919;-72
2021/01/04 05:15:31;;;;;;;;;;;8.90;63.90;;;;;;2583448;23;19926;-73
2021/01/04 05:16:41;;;;;;;;;;;8.90;64.50;;;;;;2583437;23;19927;-72
2021/01/04 05:18:06;;;;;;;;;;;8.90;63.60;;;;;;2583512;23;19919;-72
2021/01/04 05:19:21;;;;;;;;;;;8.90;62.00;;;;;;2552930;23;19951;-72
2021/01/04 05:20:29;;;;;;;;;;;9.00;63.20;;;;;;2583347;23;19947;-72
2021/01/04 05:21:45;;;;;;;;;;;8.80;62.10;;;;;;2583443;23;19920;-72
2021/01/04 05:23:14;;;;;;;;;;;8.60;62.90;;;;;;2583571;23;20068;-72
2021/01/04 05:24:25;;;;;;;;;;;8.50;63.60;;;;;;2520462;23;19921;-72
2021/01/04 05:25:34;;;;;;;;;;;8.40;65.60;;;;;;2570291;23;19920;-72
2021/01/04 05:27:00;;;;;;;;;;;8.20;64.60;;;;;;2583452;23;19923;-72
2021/01/04 05:28:13;;;;;;;;;;;8.30;64.80;;;;;;2583470;23;19919;-72
2021/01/04 05:29:31;;;;;;;;;;;8.10;64.80;;;;;;2583379;23;19926;-72
2021/01/04 05:30:36;;;;;;;;;;;8.20;66.10;;;;;;2583359;23;19954;-72
2021/01/04 05:31:49;;;;;;;;;;;8.30;66.40;;;;;;2583215;23;19919;-73
2021/01/04 05:33:05;;;;;;;;;;;8.40;65.90;;;;;;2583358;23;19927;-72
2021/01/04 05:34:08;;;;;;;;;;;8.50;65.60;;;;;;2583525;23;19920;-72
2021/01/04 05:35:11;;;;;;;;;;;8.50;64.30;;;;;;2583252;23;20329;-72
2021/01/04 05:36:22;;;;;;;;;;;8.60;65.20;;;;;;2583224;23;19959;-72
2021/01/04 05:37:28;;;;;;;;;;;8.60;65.60;;;;;;2583523;23;19942;-72
2021/01/04 05:38:35;;;;;;;;;;;8.50;64.10;;;;;;2583362;23;19920;-72
2021/01/04 05:39:54;;;;;;;;;;;8.50;64.60;;;;;;2583435;23;19953;-72
2021/01/04 05:41:07;;;;;;;;;;;8.50;65.50;;;;;;2583322;23;19920;-72
2021/01/04 05:42:29;;;;;;;;;;;8.70;66.10;;;;;;2583323;23;19919;-72
2021/01/04 05:43:42;;;;;;;;;;;8.70;64.20;;;;;;2583368;23;19926;-71
2021/01/04 05:44:50;;;;;;;;;;;8.50;64.10;;;;;;2583411;23;19919;-71
2021/01/04 05:45:54;;;;;;;;;;;8.40;64.60;;;;;;2583451;23;19926;-72
2021/01/04 05:46:58;;;;;;;;;;;8.50;63.90;;;;;;2583168;23;20363;-72
2021/01/04 05:48:08;;;;;;;;;;;8.30;64.10;;;;;;2583275;23;19920;-72
2021/01/04 05:49:15;;;;;;;;;;;8.50;66.00;;;;;;2583321;23;19942;-72
2021/01/04 05:50:23;;;;;;;;;;;8.40;65.50;;;;;;2583328;23;19919;-72
2021/01/04 05:51:26;;;;;;;;;;;8.30;64.50;;;;;;2582941;23;19920;-72
2021/01/04 05:52:28;;;;;;;;;;;8.10;65.20;;;;;;2583310;23;20353;-71
2021/01/04 05:53:29;;;;;;;;;;;8.10;66.70;;;;;;2583257;23;19926;-71
2021/01/04 05:54:32;;;;;;;;;;;8.30;66.20;;;;;;2583375;23;19927;-71
2021/01/04 05:55:34;;;;;;;;;;;8.30;66.60;;;;;;2583201;23;20348;-71
2021/01/04 05:56:35;;;;;;;;;;;8.40;65.20;;;;;;2582945;23;19933;-71
2021/01/04 05:57:42;;;;;;;;;;;8.30;64.50;;;;;;2583402;23;19927;-71
2021/01/04 05:58:44;;;;;;;;;;;8.20;64.50;;;;;;2583312;23;19919;-72
2021/01/04 05:59:46;;;;;;;;;;;8.20;65.20;;;;;;2583130;23;19919;-72
2021/01/04 06:00:48;;;;;;;;;;;8.10;66.90;;;;;;2583374;23;19920;-72
2021/01/04 06:01:59;;;;;;;;;;;8.10;65.50;;;;;;2583325;23;19973;-72
2021/01/04 06:03:05;;;;;;;;;;;8.30;67.50;;;;;;2583310;23;19923;-68
2021/01/04 06:04:08;;;;;;;;;;;8.20;65.50;;;;;;2583240;23;19948;-71
2021/01/04 06:05:11;;;;;;;;;;;8.10;65.50;;;;;;2583249;23;19942;-71
2021/01/04 06:06:15;;;;;;;;;;;8.10;65.70;;;;;;2583215;23;19943;-72
2021/01/04 06:07:17;;;;;;;;;;;8.20;67.80;;;;;;2583528;23;19927;-71
2021/01/04 06:08:20;;;;;;;;;;;8.10;65.50;;;;;;2583372;23;19930;-71
2021/01/04 06:09:23;;;;;;;;;;;7.90;66.40;;;;;;2583028;23;20218;-71
2021/01/04 06:10:28;;;;;;;;;;;7.90;66.10;;;;;;2583257;23;19920;-72
2021/01/04 06:11:49;;;;;;;;;;;7.90;66.50;;;;;;2570275;23;19921;-71
2021/01/04 06:12:51;;;;;;;;;;;7.90;68.20;;;;;;2574838;23;19927;-71
2021/01/04 06:14:00;;;;;;;;;;;7.90;66.70;;;;;;2583496;23;20246;-73
2021/01/04 06:15:03;;;;;;;;;;;8.00;66.80;;;;;;2583388;23;19919;-72
2021/01/04 06:16:09;;;;;;;;;;;8.00;67.00;;;;;;2583323;23;19920;-72
2021/01/04 06:17:28;;;;;;;;;;;8.00;68.00;;;;;;2583280;23;19920;-71
2021/01/04 06:18:31;;;;;;;;;;;8.10;66.70;;;;;;2583556;23;19943;-71
2021/01/04 06:19:34;;;;;;;;;;;8.00;66.40;;;;;;2583670;23;19920;-72
2021/01/04 06:20:48;;;;;;;;;;;7.90;66.60;;;;;;2583631;23;20356;-72
2021/01/04 06:21:52;;;;;;;;;;;7.80;67.70;;;;;;2583827;23;19927;-71
2021/01/04 06:22:53;;;;;;;;;;;7.80;68.70;;;;;;2583702;23;19919;-72
2021/01/04 06:23:59;;;;;;;;;;;7.90;67.90;;;;;;2583778;23;20123;-71
2021/01/04 06:25:05;;;;;;;;;;;7.90;66.80;;;;;;2583568;23;19920;-71
2021/01/04 06:26:11;;;;;;;;;;;8.00;67.10;;;;;;2585430;23;19920;-74
2021/01/04 06:27:14;;;;;;;;;;;7.90;67.00;;;;;;2587305;23;19919;-72
2021/01/04 06:28:16;;;;;;;;;;;8.10;69.90;;;;;;2586454;23;19939;-72
2021/01/04 06:29:27;;;;;;;;;;;8.10;66.80;;;;;;2586451;23;19927;-71
2021/01/04 06:30:29;;;;;;;;;;;8.20;66.30;;;;;;2586226;23;19919;-72
2021/01/04 06:31:34;;;;;;;;;;;8.20;66.80;;;;;;2586389;23;20336;-73
2021/01/04 06:32:35;;;;;;;;;;;8.10;66.10;;;;;;2585781;23;19920;-72
2021/01/04 06:33:38;;;;;;;;;;;8.00;66.40;;;;;;2584824;23;20110;-73
2021/01/04 06:34:39;;;;;;;;;;;7.90;66.70;;;;;;2583887;23;19919;-71